sensor_id;sensor_type;location;lat;lon;timestamp;pressure;altitude;pressure_sealevel;temperature;humidity
48848;BME280;36611;51.638;5.784;2023-03-05T00:01:14;102187.13;;;21.17;36.81
48848;BME280;36611;51.638;5.784;2023-03-05T00:03:41;102181.69;;;21.17;37.25
48848;BME280;36611;51.638;5.784;2023-03-05T00:06:08;102179.81;;;21.17;36.91
48848;BME280;36611;51.638;5.784;2023-03-05T00:08:36;102175.50;;;21.15;36.80
48848;BME280;36611;51.638;5.784;2023-03-05T00:11:05;102177.53;;;21.03;37.18
48848;BME280;36611;51.638;5.784;2023-03-05T00:13:32;102175.09;;;21.00;37.12
48848;BME280;36611;51.638;5.784;2023-03-05T00:16:02;102174.78;;;20.93;36.98
48848;BME280;36611;51.638;5.784;2023-03-05T00:18:29;102172.50;;;20.99;37.28
48848;BME280;36611;51.638;5.784;2023-03-05T00:20:56;102171.63;;;20.98;37.14
48848;BME280;36611;51.638;5.784;2023-03-05T00:23:22;102169.91;;;20.97;36.93
48848;BME280;36611;51.638;5.784;2023-03-05T00:25:49;102171.34;;;21.01;36.77
48848;BME280;36611;51.638;5.784;2023-03-05T00:28:15;102164.72;;;21.04;36.91
48848;BME280;36611;51.638;5.784;2023-03-05T00:30:42;102162.84;;;21.04;37.30
48848;BME280;36611;51.638;5.784;2023-03-05T00:33:11;102168.03;;;21.07;36.85
48848;BME280;36611;51.638;5.784;2023-03-05T00:35:43;102158.13;;;21.06;36.59
48848;BME280;36611;51.638;5.784;2023-03-05T00:38:11;102164.59;;;21.05;36.63
48848;BME280;36611;51.638;5.784;2023-03-05T00:40:39;102160.84;;;21.06;37.02
48848;BME280;36611;51.638;5.784;2023-03-05T00:43:07;102165.00;;;21.10;36.79
48848;BME280;36611;51.638;5.784;2023-03-05T00:45:34;102157.81;;;21.09;36.92
48848;BME280;36611;51.638;5.784;2023-03-05T00:48:01;102151.78;;;21.06;36.59
48848;BME280;36611;51.638;5.784;2023-03-05T00:50:28;102152.66;;;21.06;36.70
48848;BME280;36611;51.638;5.784;2023-03-05T00:52:55;102148.75;;;21.09;36.75
48848;BME280;36611;51.638;5.784;2023-03-05T00:55:21;102135.09;;;21.09;36.35
48848;BME280;36611;51.638;5.784;2023-03-05T00:57:48;102137.69;;;21.10;36.83
48848;BME280;36611;51.638;5.784;2023-03-05T01:00:15;102137.84;;;21.09;36.30
48848;BME280;36611;51.638;5.784;2023-03-05T01:02:42;102133.53;;;21.06;36.73
48848;BME280;36611;51.638;5.784;2023-03-05T01:05:13;102132.97;;;21.03;36.32
48848;BME280;36611;51.638;5.784;2023-03-05T01:07:40;102132.97;;;20.93;36.64
48848;BME280;36611;51.638;5.784;2023-03-05T01:10:08;102126.38;;;20.86;36.31
48848;BME280;36611;51.638;5.784;2023-03-05T01:12:36;102123.22;;;20.81;36.45
48848;BME280;36611;51.638;5.784;2023-03-05T01:15:04;102119.47;;;20.91;36.62
48848;BME280;36611;51.638;5.784;2023-03-05T01:17:31;102120.31;;;20.92;36.53
48848;BME280;36611;51.638;5.784;2023-03-05T01:19:57;102114.00;;;20.91;36.29
48848;BME280;36611;51.638;5.784;2023-03-05T01:22:24;102114.44;;;20.97;36.45
48848;BME280;36611;51.638;5.784;2023-03-05T01:24:50;102114.13;;;21.00;36.68
48848;BME280;36611;51.638;5.784;2023-03-05T01:27:17;102111.69;;;21.06;36.29
48848;BME280;36611;51.638;5.784;2023-03-05T01:29:43;102108.09;;;21.06;36.44
48848;BME280;36611;51.638;5.784;2023-03-05T01:32:10;102108.22;;;21.04;36.44
48848;BME280;36611;51.638;5.784;2023-03-05T01:34:36;102111.81;;;21.05;36.38
48848;BME280;36611;51.638;5.784;2023-03-05T01:37:03;102101.63;;;21.07;36.08
48848;BME280;36611;51.638;5.784;2023-03-05T01:39:30;102106.06;;;21.08;36.36
48848;BME280;36611;51.638;5.784;2023-03-05T01:41:56;102100.59;;;21.08;36.02
48848;BME280;36611;51.638;5.784;2023-03-05T01:44:28;102102.63;;;21.06;36.13
48848;BME280;36611;51.638;5.784;2023-03-05T01:46:55;102089.97;;;21.05;35.99
48848;BME280;36611;51.638;5.784;2023-03-05T01:49:35;102085.38;;;21.05;36.22
48848;BME280;36611;51.638;5.784;2023-03-05T01:52:11;102080.63;;;21.07;36.28
48848;BME280;36611;51.638;5.784;2023-03-05T01:54:49;102078.91;;;21.06;36.31
48848;BME280;36611;51.638;5.784;2023-03-05T01:57:22;102074.03;;;21.00;36.14
48848;BME280;36611;51.638;5.784;2023-03-05T01:59:53;102067.28;;;20.94;35.86
48848;BME280;36611;51.638;5.784;2023-03-05T02:02:21;102066.84;;;20.80;36.23
48848;BME280;36611;51.638;5.784;2023-03-05T02:05:00;102062.97;;;20.73;36.23
48848;BME280;36611;51.638;5.784;2023-03-05T02:07:30;102053.78;;;20.64;36.22
48848;BME280;36611;51.638;5.784;2023-03-05T02:09:56;102056.09;;;20.59;35.91
48848;BME280;36611;51.638;5.784;2023-03-05T02:12:23;102055.09;;;20.60;36.33
48848;BME280;36611;51.638;5.784;2023-03-05T02:14:51;102048.59;;;20.71;36.46
48848;BME280;36611;51.638;5.784;2023-03-05T02:17:26;102038.69;;;20.79;36.30
48848;BME280;36611;51.638;5.784;2023-03-05T02:19:55;102042.56;;;20.86;36.14
48848;BME280;36611;51.638;5.784;2023-03-05T02:22:23;102032.78;;;20.93;36.04
48848;BME280;36611;51.638;5.784;2023-03-05T02:24:50;102034.22;;;20.98;35.95
48848;BME280;36611;51.638;5.784;2023-03-05T02:27:20;102027.03;;;20.97;35.70
48848;BME280;36611;51.638;5.784;2023-03-05T02:29:48;102025.31;;;20.96;36.08
48848;BME280;36611;51.638;5.784;2023-03-05T02:32:15;102018.13;;;20.94;35.78
48848;BME280;36611;51.638;5.784;2023-03-05T02:34:42;102016.97;;;20.97;35.95
48848;BME280;36611;51.638;5.784;2023-03-05T02:37:09;102017.81;;;20.98;35.68
48848;BME280;36611;51.638;5.784;2023-03-05T02:39:37;102007.91;;;20.97;36.00
48848;BME280;36611;51.638;5.784;2023-03-05T02:42:03;102008.91;;;20.96;35.92
48848;BME280;36611;51.638;5.784;2023-03-05T02:44:30;101995.28;;;20.96;36.14
48848;BME280;36611;51.638;5.784;2023-03-05T02:46:56;101990.66;;;20.96;35.94
48848;BME280;36611;51.638;5.784;2023-03-05T02:49:23;101991.53;;;20.97;35.82
48848;BME280;36611;51.638;5.784;2023-03-05T02:51:50;101995.00;;;20.89;35.56
48848;BME280;36611;51.638;5.784;2023-03-05T02:54:17;101985.53;;;20.74;36.13
48848;BME280;36611;51.638;5.784;2023-03-05T02:56:43;101993.59;;;20.66;35.89
48848;BME280;36611;51.638;5.784;2023-03-05T02:59:10;101985.56;;;20.54;35.68
48848;BME280;36611;51.638;5.784;2023-03-05T03:01:36;101977.09;;;20.48;36.23
48848;BME280;36611;51.638;5.784;2023-03-05T03:04:03;101972.81;;;20.45;36.18
48848;BME280;36611;51.638;5.784;2023-03-05T03:06:30;101973.94;;;20.52;36.25
48848;BME280;36611;51.638;5.784;2023-03-05T03:08:56;101973.34;;;20.58;35.97
48848;BME280;36611;51.638;5.784;2023-03-05T03:11:23;101969.59;;;20.69;36.40
48848;BME280;36611;51.638;5.784;2023-03-05T03:13:49;101971.44;;;20.78;35.89
48848;BME280;36611;51.638;5.784;2023-03-05T03:16:16;101970.72;;;20.86;35.79
48848;BME280;36611;51.638;5.784;2023-03-05T03:18:43;101960.66;;;20.86;35.64
48848;BME280;36611;51.638;5.784;2023-03-05T03:21:21;101954.63;;;20.83;35.70
48848;BME280;36611;51.638;5.784;2023-03-05T03:23:48;101959.25;;;20.82;35.96
48848;BME280;36611;51.638;5.784;2023-03-05T03:26:15;101945.13;;;20.87;35.82
48848;BME280;36611;51.638;5.784;2023-03-05T03:28:42;101934.50;;;20.84;35.67
48848;BME280;36611;51.638;5.784;2023-03-05T03:31:09;101948.88;;;20.86;35.93
48848;BME280;36611;51.638;5.784;2023-03-05T03:33:35;101957.22;;;20.84;35.21
48848;BME280;36611;51.638;5.784;2023-03-05T03:36:03;101952.91;;;20.82;35.65
48848;BME280;36611;51.638;5.784;2023-03-05T03:38:30;101934.38;;;20.76;35.50
48848;BME280;36611;51.638;5.784;2023-03-05T03:40:57;101939.97;;;20.74;35.79
48848;BME280;36611;51.638;5.784;2023-03-05T03:43:23;101940.84;;;20.75;35.87
48848;BME280;36611;51.638;5.784;2023-03-05T03:45:50;101934.56;;;20.65;35.70
48848;BME280;36611;51.638;5.784;2023-03-05T03:48:16;101933.41;;;20.57;35.46
48848;BME280;36611;51.638;5.784;2023-03-05T03:50:43;101934.59;;;20.45;35.62
48848;BME280;36611;51.638;5.784;2023-03-05T03:53:10;101930.00;;;20.46;35.74
48848;BME280;36611;51.638;5.784;2023-03-05T03:55:40;101930.84;;;20.46;35.84
48848;BME280;36611;51.638;5.784;2023-03-05T03:58:12;101933.03;;;20.43;35.92
48848;BME280;36611;51.638;5.784;2023-03-05T04:00:39;101929.44;;;20.42;35.79
48848;BME280;36611;51.638;5.784;2023-03-05T04:03:07;101933.41;;;20.57;36.30
48848;BME280;36611;51.638;5.784;2023-03-05T04:05:33;101929.81;;;20.67;35.98
48848;BME280;36611;51.638;5.784;2023-03-05T04:08:00;101915.13;;;20.68;35.74
48848;BME280;36611;51.638;5.784;2023-03-05T04:10:26;101917.44;;;20.72;35.43
48848;BME280;36611;51.638;5.784;2023-03-05T04:12:53;101912.13;;;20.71;35.37
48848;BME280;36611;51.638;5.784;2023-03-05T04:15:20;101903.47;;;20.75;35.59
48848;BME280;36611;51.638;5.784;2023-03-05T04:17:46;101907.06;;;20.76;36.27
48848;BME280;36611;51.638;5.784;2023-03-05T04:20:12;101903.88;;;20.80;35.89
48848;BME280;36611;51.638;5.784;2023-03-05T04:22:39;101900.03;;;20.83;35.50
48848;BME280;36611;51.638;5.784;2023-03-05T04:25:06;101899.72;;;20.86;35.75
48848;BME280;36611;51.638;5.784;2023-03-05T04:27:33;101896.84;;;20.87;35.44
48848;BME280;36611;51.638;5.784;2023-03-05T04:30:01;101890.69;;;20.85;35.54
48848;BME280;36611;51.638;5.784;2023-03-05T04:32:27;101897.16;;;20.84;35.33
48848;BME280;36611;51.638;5.784;2023-03-05T04:34:56;101884.25;;;20.67;35.17
48848;BME280;36611;51.638;5.784;2023-03-05T04:37:24;101892.78;;;20.54;35.21
48848;BME280;36611;51.638;5.784;2023-03-05T04:39:51;101888.47;;;20.52;35.37
48848;BME280;36611;51.638;5.784;2023-03-05T04:42:18;101889.22;;;20.44;35.44
48848;BME280;36611;51.638;5.784;2023-03-05T04:44:47;101888.50;;;20.42;35.57
48848;BME280;36611;51.638;5.784;2023-03-05T04:47:15;101883.59;;;20.36;35.56
48848;BME280;36611;51.638;5.784;2023-03-05T04:49:42;101889.78;;;20.38;35.69
48848;BME280;36611;51.638;5.784;2023-03-05T04:52:10;101893.09;;;20.42;35.50
48848;BME280;36611;51.638;5.784;2023-03-05T04:54:37;101882.34;;;20.40;35.63
48848;BME280;36611;51.638;5.784;2023-03-05T04:57:04;101884.47;;;20.46;36.04
48848;BME280;36611;51.638;5.784;2023-03-05T04:59:31;101873.09;;;20.51;35.46
48848;BME280;36611;51.638;5.784;2023-03-05T05:01:57;101882.00;;;20.53;35.84
48848;BME280;36611;51.638;5.784;2023-03-05T05:04:24;101875.97;;;20.59;35.60
48848;BME280;36611;51.638;5.784;2023-03-05T05:06:54;101866.47;;;20.63;35.64
48848;BME280;36611;51.638;5.784;2023-03-05T05:09:21;101864.59;;;20.63;35.76
48848;BME280;36611;51.638;5.784;2023-03-05T05:11:48;101870.75;;;20.66;35.36
48848;BME280;36611;51.638;5.784;2023-03-05T05:14:15;101862.41;;;20.67;35.46
48848;BME280;36611;51.638;5.784;2023-03-05T05:16:41;101865.84;;;20.69;35.72
48848;BME280;36611;51.638;5.784;2023-03-05T05:19:08;101860.00;;;20.64;35.47
48848;BME280;36611;51.638;5.784;2023-03-05T05:21:34;101855.13;;;20.58;35.39
48848;BME280;36611;51.638;5.784;2023-03-05T05:24:01;101846.97;;;20.48;35.07
48848;BME280;36611;51.638;5.784;2023-03-05T05:26:27;101853.31;;;20.49;35.71
48848;BME280;36611;51.638;5.784;2023-03-05T05:28:54;101847.56;;;20.42;35.60
48848;BME280;36611;51.638;5.784;2023-03-05T05:31:20;101846.00;;;20.40;35.45
48848;BME280;36611;51.638;5.784;2023-03-05T05:33:47;101841.97;;;20.34;35.73
48848;BME280;36611;51.638;5.784;2023-03-05T05:36:16;101844.69;;;20.34;35.64
48848;BME280;36611;51.638;5.784;2023-03-05T05:38:44;101843.41;;;20.38;35.66
48848;BME280;36611;51.638;5.784;2023-03-05T05:41:13;101836.97;;;20.39;35.31
48848;BME280;36611;51.638;5.784;2023-03-05T05:43:40;101838.66;;;20.50;35.32
48848;BME280;36611;51.638;5.784;2023-03-05T05:46:10;101839.19;;;20.53;35.27
48848;BME280;36611;51.638;5.784;2023-03-05T05:48:37;101843.28;;;20.40;35.12
48848;BME280;36611;51.638;5.784;2023-03-05T05:51:06;101833.63;;;20.36;35.29
48848;BME280;36611;51.638;5.784;2023-03-05T05:53:33;101827.16;;;20.37;35.67
48848;BME280;36611;51.638;5.784;2023-03-05T05:56:00;101827.31;;;20.45;35.51
48848;BME280;36611;51.638;5.784;2023-03-05T05:58:28;101828.78;;;20.39;35.30
48848;BME280;36611;51.638;5.784;2023-03-05T06:00:55;101826.88;;;20.49;35.35
48848;BME280;36611;51.638;5.784;2023-03-05T06:03:21;101830.56;;;20.58;35.60
48848;BME280;36611;51.638;5.784;2023-03-05T06:05:48;101827.53;;;20.61;35.58
48848;BME280;36611;51.638;5.784;2023-03-05T06:08:14;101823.59;;;20.73;35.57
48848;BME280;36611;51.638;5.784;2023-03-05T06:10:41;101814.53;;;20.82;35.29
48848;BME280;36611;51.638;5.784;2023-03-05T06:13:08;101815.63;;;20.89;35.44
48848;BME280;36611;51.638;5.784;2023-03-05T06:15:34;101807.00;;;20.94;35.30
48848;BME280;36611;51.638;5.784;2023-03-05T06:18:01;101814.72;;;20.99;35.09
48848;BME280;36611;51.638;5.784;2023-03-05T06:20:28;101807.38;;;20.99;34.79
48848;BME280;36611;51.638;5.784;2023-03-05T06:22:54;101810.97;;;21.00;35.18
48848;BME280;36611;51.638;5.784;2023-03-05T06:25:21;101809.09;;;21.00;34.72
48848;BME280;36611;51.638;5.784;2023-03-05T06:27:47;101812.69;;;21.01;35.01
48848;BME280;36611;51.638;5.784;2023-03-05T06:30:14;101812.84;;;20.99;35.17
48848;BME280;36611;51.638;5.784;2023-03-05T06:32:41;101819.16;;;21.00;34.89
48848;BME280;36611;51.638;5.784;2023-03-05T06:35:07;101813.06;;;20.88;34.58
48848;BME280;36611;51.638;5.784;2023-03-05T06:37:34;101810.78;;;20.83;34.94
48848;BME280;36611;51.638;5.784;2023-03-05T06:40:00;101806.03;;;20.85;35.09
48848;BME280;36611;51.638;5.784;2023-03-05T06:42:27;101813.06;;;20.88;35.14
48848;BME280;36611;51.638;5.784;2023-03-05T06:44:53;101809.16;;;20.90;35.36
48848;BME280;36611;51.638;5.784;2023-03-05T06:47:20;101809.88;;;20.92;35.15
48848;BME280;36611;51.638;5.784;2023-03-05T06:49:46;101812.91;;;20.89;34.99
48848;BME280;36611;51.638;5.784;2023-03-05T06:52:13;101805.88;;;20.87;35.14
48848;BME280;36611;51.638;5.784;2023-03-05T06:54:39;101816.41;;;20.82;35.02
48848;BME280;36611;51.638;5.784;2023-03-05T06:57:06;101814.41;;;20.74;35.32
48848;BME280;36611;51.638;5.784;2023-03-05T06:59:32;101813.78;;;20.80;35.65
48848;BME280;36611;51.638;5.784;2023-03-05T07:01:59;101814.38;;;20.84;35.56
48848;BME280;36611;51.638;5.784;2023-03-05T07:04:26;101818.38;;;20.89;35.67
48848;BME280;36611;51.638;5.784;2023-03-05T07:06:52;101814.97;;;20.78;35.21
48848;BME280;36611;51.638;5.784;2023-03-05T07:09:18;101815.66;;;20.80;35.46
48848;BME280;36611;51.638;5.784;2023-03-05T07:11:45;101807.63;;;20.78;35.54
48848;BME280;36611;51.638;5.784;2023-03-05T07:14:11;101810.97;;;20.72;35.41
48848;BME280;36611;51.638;5.784;2023-03-05T07:16:38;101805.41;;;20.64;35.97
48848;BME280;36611;51.638;5.784;2023-03-05T07:19:05;101796.50;;;20.62;35.41
48848;BME280;36611;51.638;5.784;2023-03-05T07:21:33;101805.50;;;20.72;36.04
48848;BME280;36611;51.638;5.784;2023-03-05T07:24:04;101801.31;;;20.78;36.48
48848;BME280;36611;51.638;5.784;2023-03-05T07:26:31;101806.03;;;20.85;36.24
48848;BME280;36611;51.638;5.784;2023-03-05T07:28:59;101803.00;;;20.88;35.79
48848;BME280;36611;51.638;5.784;2023-03-05T07:31:26;101802.53;;;20.93;35.84
48848;BME280;36611;51.638;5.784;2023-03-05T07:33:57;101798.78;;;20.94;35.54
48848;BME280;36611;51.638;5.784;2023-03-05T07:36:25;101799.66;;;20.94;35.52
48848;BME280;36611;51.638;5.784;2023-03-05T07:38:52;101802.22;;;20.96;35.40
48848;BME280;36611;51.638;5.784;2023-03-05T07:41:21;101801.19;;;20.70;34.65
48848;BME280;36611;51.638;5.784;2023-03-05T07:43:51;101796.91;;;20.67;35.37
48848;BME280;36611;51.638;5.784;2023-03-05T07:46:20;101800.03;;;20.72;35.67
48848;BME280;36611;51.638;5.784;2023-03-05T07:48:48;101798.94;;;20.65;35.64
48848;BME280;36611;51.638;5.784;2023-03-05T07:51:17;101801.50;;;20.67;35.76
48848;BME280;36611;51.638;5.784;2023-03-05T07:53:47;101801.41;;;20.58;35.30
48848;BME280;36611;51.638;5.784;2023-03-05T07:56:20;101796.84;;;20.49;35.20
48848;BME280;36611;51.638;5.784;2023-03-05T07:58:47;101799.03;;;20.36;35.44
48848;BME280;36611;51.638;5.784;2023-03-05T08:01:13;101795.03;;;20.30;35.22
48848;BME280;36611;51.638;5.784;2023-03-05T08:03:41;101796.19;;;20.28;35.66
48848;BME280;36611;51.638;5.784;2023-03-05T08:06:09;101795.63;;;20.24;35.24
48848;BME280;36611;51.638;5.784;2023-03-05T08:08:37;101788.44;;;20.23;35.84
48848;BME280;36611;51.638;5.784;2023-03-05T08:11:05;101786.44;;;20.25;35.63
48848;BME280;36611;51.638;5.784;2023-03-05T08:13:32;101779.66;;;20.29;35.70
48848;BME280;36611;51.638;5.784;2023-03-05T08:16:03;101784.81;;;20.33;35.42
48848;BME280;36611;51.638;5.784;2023-03-05T08:18:30;101784.69;;;20.34;35.55
48848;BME280;36611;51.638;5.784;2023-03-05T08:20:56;101788.25;;;20.35;35.52
48848;BME280;36611;51.638;5.784;2023-03-05T08:23:23;101778.66;;;20.30;35.28
48848;BME280;36611;51.638;5.784;2023-03-05T08:25:49;101772.34;;;20.30;35.36
48848;BME280;36611;51.638;5.784;2023-03-05T08:28:16;101782.81;;;20.35;35.60
48848;BME280;36611;51.638;5.784;2023-03-05T08:30:46;101775.78;;;20.32;35.54
48848;BME280;36611;51.638;5.784;2023-03-05T08:33:13;101773.06;;;20.32;35.56
48848;BME280;36611;51.638;5.784;2023-03-05T08:35:40;101772.66;;;20.27;35.87
48848;BME280;36611;51.638;5.784;2023-03-05T08:38:07;101770.22;;;20.24;35.54
48848;BME280;36611;51.638;5.784;2023-03-05T08:40:33;101768.19;;;20.26;35.34
48848;BME280;36611;51.638;5.784;2023-03-05T08:43:00;101768.75;;;20.29;35.17
48848;BME280;36611;51.638;5.784;2023-03-05T08:45:26;101769.75;;;20.28;35.08
48848;BME280;36611;51.638;5.784;2023-03-05T08:47:54;101760.41;;;20.41;35.12
48848;BME280;36611;51.638;5.784;2023-03-05T08:50:23;101768.25;;;20.53;35.05
48848;BME280;36611;51.638;5.784;2023-03-05T08:52:49;101765.66;;;20.52;34.87
48848;BME280;36611;51.638;5.784;2023-03-05T08:55:16;101766.38;;;20.54;35.03
48848;BME280;36611;51.638;5.784;2023-03-05T08:57:43;101756.31;;;20.54;35.03
48848;BME280;36611;51.638;5.784;2023-03-05T09:00:10;101752.72;;;20.54;34.95
48848;BME280;36611;51.638;5.784;2023-03-05T09:02:37;101745.31;;;20.46;34.79
48848;BME280;36611;51.638;5.784;2023-03-05T09:05:05;101746.31;;;20.45;35.06
48848;BME280;36611;51.638;5.784;2023-03-05T09:07:32;101741.72;;;20.46;35.18
48848;BME280;36611;51.638;5.784;2023-03-05T09:09:58;101742.72;;;20.45;35.03
48848;BME280;36611;51.638;5.784;2023-03-05T09:12:25;101735.09;;;20.48;35.04
48848;BME280;36611;51.638;5.784;2023-03-05T09:14:53;101738.44;;;20.42;34.92
48848;BME280;36611;51.638;5.784;2023-03-05T09:17:20;101719.75;;;20.38;35.24
48848;BME280;36611;51.638;5.784;2023-03-05T09:19:47;101737.28;;;20.45;35.15
48848;BME280;36611;51.638;5.784;2023-03-05T09:22:13;101735.56;;;20.44;35.30
48848;BME280;36611;51.638;5.784;2023-03-05T09:24:40;101731.81;;;20.45;34.85
48848;BME280;36611;51.638;5.784;2023-03-05T09:27:08;101733.84;;;20.43;34.99
48848;BME280;36611;51.638;5.784;2023-03-05T09:29:35;101728.53;;;20.41;35.45
48848;BME280;36611;51.638;5.784;2023-03-05T09:32:01;101720.50;;;20.40;35.59
48848;BME280;36611;51.638;5.784;2023-03-05T09:34:28;101727.09;;;20.37;34.96
48848;BME280;36611;51.638;5.784;2023-03-05T09:36:55;101716.59;;;20.42;34.83
48848;BME280;36611;51.638;5.784;2023-03-05T09:39:21;101722.78;;;20.44;35.23
48848;BME280;36611;51.638;5.784;2023-03-05T09:50:44;101713.16;;;20.40;35.07
48848;BME280;36611;51.638;5.784;2023-03-05T09:56:02;101708.72;;;20.39;35.12
48848;BME280;36611;51.638;5.784;2023-03-05T09:58:53;101700.09;;;20.44;35.23
48848;BME280;36611;51.638;5.784;2023-03-05T10:01:28;101708.81;;;20.47;35.28
48848;BME280;36611;51.638;5.784;2023-03-05T10:04:15;101702.19;;;20.50;34.75
48848;BME280;36611;51.638;5.784;2023-03-05T10:09:45;101696.84;;;20.58;34.69
48848;BME280;36611;51.638;5.784;2023-03-05T10:12:39;101693.56;;;20.54;35.00
48848;BME280;36611;51.638;5.784;2023-03-05T10:15:27;101687.78;;;20.57;34.93
48848;BME280;36611;51.638;5.784;2023-03-05T10:20:47;101685.84;;;20.50;34.71
48848;BME280;36611;51.638;5.784;2023-03-05T10:23:29;101688.56;;;20.50;35.25
48848;BME280;36611;51.638;5.784;2023-03-05T10:26:07;101689.56;;;20.49;34.88
48848;BME280;36611;51.638;5.784;2023-03-05T10:34:07;101693.06;;;20.41;34.94
48848;BME280;36611;51.638;5.784;2023-03-05T10:39:45;101692.47;;;20.38;35.28
48848;BME280;36611;51.638;5.784;2023-03-05T10:45:00;101683.44;;;20.37;34.84
48848;BME280;36611;51.638;5.784;2023-03-05T10:47:43;101684.16;;;20.39;34.88
48848;BME280;36611;51.638;5.784;2023-03-05T10:50:35;101674.81;;;20.42;34.79
48848;BME280;36611;51.638;5.784;2023-03-05T10:53:16;101671.09;;;20.43;34.87
48848;BME280;36611;51.638;5.784;2023-03-05T10:55:44;101660.31;;;20.41;35.21
48848;BME280;36611;51.638;5.784;2023-03-05T10:58:13;101658.59;;;20.40;34.79
48848;BME280;36611;51.638;5.784;2023-03-05T11:01:15;101660.59;;;20.38;34.99
48848;BME280;36611;51.638;5.784;2023-03-05T11:06:13;101659.41;;;20.50;34.78
48848;BME280;36611;51.638;5.784;2023-03-05T11:08:39;101660.09;;;20.52;34.95
48848;BME280;36611;51.638;5.784;2023-03-05T11:11:16;101655.50;;;20.53;34.93
48848;BME280;36611;51.638;5.784;2023-03-05T11:18:49;101647.13;;;20.82;35.16
48848;BME280;36611;51.638;5.784;2023-03-05T11:21:22;101638.13;;;20.72;34.82
48848;BME280;36611;51.638;5.784;2023-03-05T11:24:25;101634.84;;;20.68;35.16
48848;BME280;36611;51.638;5.784;2023-03-05T11:26:53;101631.09;;;20.69;35.09
48848;BME280;36611;51.638;5.784;2023-03-05T11:29:25;101623.63;;;20.71;35.42
48848;BME280;36611;51.638;5.784;2023-03-05T11:31:53;101621.69;;;20.81;35.48
48848;BME280;36611;51.638;5.784;2023-03-05T11:34:24;101621.53;;;20.83;35.02
48848;BME280;36611;51.638;5.784;2023-03-05T11:39:24;101614.28;;;20.91;35.43
48848;BME280;36611;51.638;5.784;2023-03-05T11:41:55;101612.25;;;20.93;35.59
48848;BME280;36611;51.638;5.784;2023-03-05T11:46:56;101604.97;;;21.02;35.52
48848;BME280;36611;51.638;5.784;2023-03-05T11:49:27;101608.81;;;20.91;35.59
48848;BME280;36611;51.638;5.784;2023-03-05T11:54:30;101601.00;;;20.97;36.52
48848;BME280;36611;51.638;5.784;2023-03-05T11:56:59;101576.97;;;21.00;36.58
48848;BME280;36611;51.638;5.784;2023-03-05T11:59:33;101580.34;;;20.94;37.07
48848;BME280;36611;51.638;5.784;2023-03-05T12:02:00;101575.34;;;20.89;37.51
48848;BME280;36611;51.638;5.784;2023-03-05T12:04:29;101569.09;;;20.97;38.08
48848;BME280;36611;51.638;5.784;2023-03-05T12:06:59;101560.38;;;20.93;37.90
48848;BME280;36611;51.638;5.784;2023-03-05T12:09:38;101555.59;;;20.96;37.91
48848;BME280;36611;51.638;5.784;2023-03-05T12:15:18;101541.53;;;21.08;38.02
48848;BME280;36611;51.638;5.784;2023-03-05T12:17:53;101540.88;;;21.14;37.85
48848;BME280;36611;51.638;5.784;2023-03-05T12:20:45;101539.88;;;21.15;38.18
48848;BME280;36611;51.638;5.784;2023-03-05T12:23:17;101530.28;;;21.11;37.99
48848;BME280;36611;51.638;5.784;2023-03-05T12:25:49;101533.72;;;21.13;37.93
48848;BME280;36611;51.638;5.784;2023-03-05T12:31:26;101523.59;;;21.58;38.10
48848;BME280;36611;51.638;5.784;2023-03-05T12:33:52;101523.09;;;21.62;38.35
48848;BME280;36611;51.638;5.784;2023-03-05T12:38:55;101512.19;;;21.70;38.57
48848;BME280;36611;51.638;5.784;2023-03-05T12:44:18;101508.06;;;21.32;38.09
48848;BME280;36611;51.638;5.784;2023-03-05T12:47:15;101507.75;;;21.35;39.45
48848;BME280;36611;51.638;5.784;2023-03-05T12:49:44;101496.41;;;21.56;39.26
48848;BME280;36611;51.638;5.784;2023-03-05T12:52:21;101492.72;;;21.73;39.08
48848;BME280;36611;51.638;5.784;2023-03-05T12:57:43;101475.28;;;21.66;39.09
48848;BME280;36611;51.638;5.784;2023-03-05T13:00:17;101464.19;;;21.76;39.21
48848;BME280;36611;51.638;5.784;2023-03-05T13:02:51;101464.38;;;21.82;39.09
48848;BME280;36611;51.638;5.784;2023-03-05T13:05:34;101465.75;;;21.86;38.51
48848;BME280;36611;51.638;5.784;2023-03-05T13:10:41;101452.28;;;21.93;38.31
48848;BME280;36611;51.638;5.784;2023-03-05T13:13:13;101444.22;;;21.92;38.32
48848;BME280;36611;51.638;5.784;2023-03-05T13:15:45;101444.75;;;21.95;38.69
48848;BME280;36611;51.638;5.784;2023-03-05T13:18:24;101438.94;;;21.98;38.27
48848;BME280;36611;51.638;5.784;2023-03-05T13:21:05;101434.16;;;22.00;38.44
48848;BME280;36611;51.638;5.784;2023-03-05T13:23:33;101433.69;;;22.05;37.95
48848;BME280;36611;51.638;5.784;2023-03-05T13:26:17;101425.66;;;22.11;38.14
48848;BME280;36611;51.638;5.784;2023-03-05T13:31:48;101421.16;;;22.02;37.81
48848;BME280;36611;51.638;5.784;2023-03-05T13:34:33;101421.50;;;21.99;37.99
48848;BME280;36611;51.638;5.784;2023-03-05T13:37:18;101419.13;;;21.96;38.11
48848;BME280;36611;51.638;5.784;2023-03-05T13:39:52;101417.41;;;21.95;38.01
48848;BME280;36611;51.638;5.784;2023-03-05T13:42:31;101415.69;;;21.94;38.18
48848;BME280;36611;51.638;5.784;2023-03-05T13:45:06;101405.59;;;21.95;38.10
48848;BME280;36611;51.638;5.784;2023-03-05T13:47:34;101404.75;;;21.94;37.77
48848;BME280;36611;51.638;5.784;2023-03-05T13:50:05;101393.66;;;21.96;38.13
48848;BME280;36611;51.638;5.784;2023-03-05T13:52:34;101386.63;;;21.93;38.16
48848;BME280;36611;51.638;5.784;2023-03-05T13:55:03;101391.59;;;21.89;38.14
48848;BME280;36611;51.638;5.784;2023-03-05T14:00:04;101383.56;;;21.96;38.14
48848;BME280;36611;51.638;5.784;2023-03-05T14:02:31;101386.47;;;21.95;37.81
48848;BME280;36611;51.638;5.784;2023-03-05T14:04:59;101386.13;;;21.89;38.21
48848;BME280;36611;51.638;5.784;2023-03-05T14:07:38;101377.41;;;21.86;38.12